createdAt,value
2019-05-14T00:03:31.111Z,102880.29
2019-05-14T00:06:02.223Z,102882.00
2019-05-14T00:08:32.867Z,102878.11
2019-05-14T00:11:02.273Z,102882.47
2019-05-14T00:13:32.256Z,102872.93
2019-05-14T00:18:46.420Z,102876.42
2019-05-14T00:21:55.192Z,102877.30
2019-05-14T00:25:05.084Z,102879.03
2019-05-14T00:27:34.543Z,102878.60
2019-05-14T00:33:01.256Z,102877.33
2019-05-14T00:35:32.547Z,102872.98
2019-05-14T00:38:13.628Z,102873.85
2019-05-14T00:44:03.286Z,102868.19
2019-05-14T00:46:33.325Z,102873.02
2019-05-14T00:51:53.108Z,102871.28
2019-05-14T00:57:12.602Z,102875.67
2019-05-14T00:59:42.054Z,102869.58
2019-05-14T01:02:51.829Z,102871.31
2019-05-14T01:05:25.165Z,102873.09
2019-05-14T01:07:54.869Z,102872.66
2019-05-14T01:10:24.371Z,102872.66
2019-05-14T01:15:51.915Z,102874.87
2019-05-14T01:18:21.903Z,102877.05
2019-05-14T01:20:52.922Z,102871.42
2019-05-14T01:26:36.620Z,102880.56
2019-05-14T01:29:45.319Z,102875.77
2019-05-14T01:32:14.779Z,102880.13
2019-05-14T01:38:02.430Z,102880.59
2019-05-14T01:40:32.063Z,102877.54
2019-05-14T01:43:02.646Z,102874.93
2019-05-14T01:45:32.995Z,102871.45
2019-05-14T01:48:02.566Z,102869.70
2019-05-14T01:50:32.336Z,102869.24
2019-05-14T01:53:03.163Z,102872.29
2019-05-14T01:55:32.741Z,102878.81
2019-05-14T01:58:02.553Z,102867.94
2019-05-14T02:03:09.219Z,102871.45
2019-05-14T02:11:34.632Z,102873.59
2019-05-14T02:14:43.352Z,102875.34
2019-05-14T02:19:51.467Z,102876.20
2019-05-14T02:25:51.662Z,102867.50
2019-05-14T02:28:22.127Z,102869.67
2019-05-14T02:30:57.938Z,102864.02
2019-05-14T02:33:23.667Z,102862.72
2019-05-14T02:35:53.078Z,102860.98
2019-05-14T02:41:19.660Z,102860.07
2019-05-14T02:43:50.504Z,102853.55
2019-05-14T02:46:59.703Z,102863.12
2019-05-14T02:52:43.634Z,102869.64
2019-05-14T02:55:13.078Z,102874.84
2019-05-14T02:57:42.544Z,102877.87
2019-05-14T03:00:51.540Z,102874.83
2019-05-14T03:03:33.084Z,102866.56
2019-05-14T03:06:02.894Z,102865.66
2019-05-14T03:08:32.676Z,102856.48
2019-05-14T03:11:41.607Z,102858.66
2019-05-14T03:14:11.068Z,102855.17
2019-05-14T03:16:40.863Z,102863.84
2019-05-14T03:19:12.566Z,102858.17
2019-05-14T03:21:42.090Z,102857.70
2019-05-14T03:34:13.727Z,102865.77
2019-05-14T03:36:42.988Z,102864.85
2019-05-14T03:39:11.264Z,102859.56
2019-05-14T03:44:39.784Z,102865.98
2019-05-14T03:47:10.308Z,102867.22
2019-05-14T03:49:40.363Z,102861.49
2019-05-14T03:52:10.552Z,102862.31
2019-05-14T03:55:20.340Z,102859.66
2019-05-14T03:57:51.372Z,102854.80
2019-05-14T04:01:01.020Z,102864.31
2019-05-14T04:37:10.675Z,102848.81
2019-05-14T04:39:40.087Z,102838.83
2019-05-14T04:42:10.049Z,102845.52
2019-05-14T04:44:42.926Z,102843.06
2019-05-14T04:47:27.658Z,102839.37
2019-05-14T04:49:43.954Z,102838.00
2019-05-14T04:52:13.758Z,102837.88
2019-05-14T04:57:34.264Z,102827.78
2019-05-14T05:00:03.984Z,102829.86
2019-05-14T05:02:33.401Z,102822.99
2019-05-14T05:05:42.258Z,102830.67
2019-05-14T05:11:22.391Z,102836.96
2019-05-14T05:13:52.285Z,102830.73
2019-05-14T05:16:22.101Z,102818.00
2019-05-14T05:22:08.018Z,102824.13
2019-05-14T05:24:38.315Z,102830.73
2019-05-14T05:27:48.712Z,102826.41
2019-05-14T05:33:33.480Z,102817.58
2019-05-14T05:36:02.854Z,102813.12
2019-05-14T05:38:32.664Z,102818.93
2019-05-14T05:41:22.455Z,102823.05
2019-05-14T05:43:52.247Z,102816.66
2019-05-14T05:46:21.608Z,102815.56
2019-05-14T05:48:51.278Z,102825.94
2019-05-14T05:51:20.841Z,102817.62
2019-05-14T05:54:09.674Z,102820.46
2019-05-14T05:59:19.119Z,102814.27
2019-05-14T06:07:53.889Z,102814.33
2019-05-14T06:13:32.653Z,102803.69
2019-05-14T06:16:02.098Z,102779.95
2019-05-14T06:18:34.314Z,102792.56
2019-05-14T06:21:03.287Z,102803.22
2019-05-14T06:23:45.048Z,102785.77
2019-05-14T06:26:53.933Z,102788.38
2019-05-14T06:29:23.518Z,102785.84
2019-05-14T06:31:52.901Z,102789.19
2019-05-14T06:34:22.373Z,102778.86
2019-05-14T06:40:01.169Z,102769.39
2019-05-14T06:42:30.584Z,102757.53
2019-05-14T06:45:00.082Z,102754.92
2019-05-14T06:48:09.003Z,102757.42
2019-05-14T06:53:53.767Z,102744.20
2019-05-14T06:56:23.278Z,102752.72
2019-05-14T06:58:52.786Z,102750.27
2019-05-14T07:01:22.398Z,102745.98
2019-05-14T07:03:51.934Z,102749.72
2019-05-14T07:06:21.416Z,102740.20
2019-05-14T07:09:30.974Z,102742.03
2019-05-14T07:15:02.537Z,102743.38
2019-05-14T07:17:32.003Z,102736.94
2019-05-14T07:22:58.648Z,102741.69
2019-05-14T07:25:28.833Z,102732.81
2019-05-14T07:28:19.297Z,102735.70
2019-05-14T07:33:51.474Z,102733.64
2019-05-14T07:36:39.912Z,102724.67
2019-05-14T07:39:09.659Z,102717.01
2019-05-14T07:41:39.292Z,102718.14
2019-05-14T07:44:09.366Z,102719.23
2019-05-14T07:46:40.141Z,102719.83
2019-05-14T07:49:11.895Z,102714.22
2019-05-14T07:51:41.122Z,102719.05
2019-05-14T07:54:11.464Z,102710.27
2019-05-14T07:57:20.399Z,102715.05
2019-05-14T07:59:50.791Z,102702.19
2019-05-14T08:02:20.173Z,102720.78
2019-05-14T08:04:49.574Z,102715.91
2019-05-14T08:07:18.961Z,102707.52
2019-05-14T08:09:48.418Z,102715.51
2019-05-14T08:12:19.314Z,102707.39
2019-05-14T08:15:09.543Z,102715.48
2019-05-14T08:17:22.864Z,102700.92
2019-05-14T08:19:52.307Z,102693.41
2019-05-14T08:22:21.780Z,102694.06
2019-05-14T08:25:02.405Z,102671.63
2019-05-14T08:27:31.842Z,102688.36
2019-05-14T08:30:01.271Z,102684.33
2019-05-14T08:32:30.853Z,102678.03
2019-05-14T08:35:00.447Z,102680.12
2019-05-14T08:37:29.912Z,102691.14
2019-05-14T08:39:59.582Z,102677.59
2019-05-14T08:42:29.212Z,102672.27
2019-05-14T08:53:45.175Z,102681.42
2019-05-14T08:56:14.640Z,102676.77
2019-05-14T08:58:43.986Z,102676.29
2019-05-14T09:01:13.477Z,102668.25
2019-05-14T09:03:43.405Z,102676.75
2019-05-14T09:08:49.634Z,102665.47
2019-05-14T09:17:22.194Z,102672.47
2019-05-14T09:20:02.015Z,102664.92
2019-05-14T09:28:28.471Z,102676.16
2019-05-14T09:30:59.676Z,102666.44
2019-05-14T09:33:29.905Z,102662.53
2019-05-14T09:36:39.831Z,102652.55
2019-05-14T09:39:12.253Z,102655.66
2019-05-14T09:41:42.970Z,102649.42
2019-05-14T09:44:51.759Z,102650.02
2019-05-14T09:47:21.221Z,102648.72
2019-05-14T09:52:59.540Z,102639.56
2019-05-14T09:55:28.950Z,102645.37
2019-05-14T09:57:58.733Z,102619.60
2019-05-14T10:00:30.178Z,102624.78
2019-05-14T10:03:39.368Z,102637.67
2019-05-14T10:06:10.075Z,102638.22
2019-05-14T10:08:39.524Z,102636.72
2019-05-14T10:13:59.846Z,102642.83
2019-05-14T10:16:30.000Z,102633.22
2019-05-14T10:18:59.616Z,102643.16
2019-05-14T10:21:29.456Z,102644.06
2019-05-14T10:27:08.881Z,102645.16
2019-05-14T10:29:39.639Z,102643.92
2019-05-14T10:32:09.223Z,102648.67
2019-05-14T10:34:38.745Z,102650.27
2019-05-14T10:37:08.764Z,102651.63
2019-05-14T10:39:39.626Z,102645.44
2019-05-14T10:42:09.236Z,102649.80
2019-05-14T10:44:40.248Z,102649.24
2019-05-14T10:47:09.897Z,102648.84
2019-05-14T10:49:39.280Z,102648.52
2019-05-14T10:52:08.700Z,102651.42
2019-05-14T10:54:38.918Z,102642.00
2019-05-14T10:57:09.966Z,102639.72
2019-05-14T10:59:39.685Z,102641.16
2019-05-14T11:02:11.996Z,102633.11
2019-05-14T11:04:40.960Z,102629.20
2019-05-14T11:13:21.571Z,102642.95
2019-05-14T11:15:51.082Z,102633.53
2019-05-14T11:18:20.660Z,102631.98
2019-05-14T11:23:45.673Z,102637.09
2019-05-14T11:26:15.399Z,102640.66
2019-05-14T11:28:44.898Z,102641.00
2019-05-14T11:31:14.316Z,102644.45
2019-05-14T11:33:44.318Z,102650.69
2019-05-14T11:36:53.183Z,102653.09
2019-05-14T11:42:38.856Z,102657.29
2019-05-14T11:45:10.943Z,102658.83
2019-05-14T11:47:41.542Z,102651.55
2019-05-14T11:53:26.566Z,102654.92
2019-05-14T11:55:55.919Z,102650.91
2019-05-14T11:58:25.440Z,102655.71
2019-05-14T12:00:54.873Z,102643.05
2019-05-14T12:06:33.858Z,102637.88
2019-05-14T12:09:04.406Z,102637.90
2019-05-14T12:11:33.831Z,102636.33
2019-05-14T12:14:03.335Z,102633.52
2019-05-14T12:19:48.573Z,102627.02
2019-05-14T12:22:19.273Z,102632.75
2019-05-14T12:24:51.632Z,102627.42
2019-05-14T12:27:21.039Z,102629.74
2019-05-14T12:29:50.708Z,102632.95
2019-05-14T12:35:19.662Z,102643.28
2019-05-14T12:37:48.972Z,102638.39
2019-05-14T12:40:19.354Z,102633.79
2019-05-14T12:42:49.976Z,102625.94
2019-05-14T12:48:30.647Z,102626.91
2019-05-14T12:54:09.363Z,102631.92
2019-05-14T12:56:40.112Z,102634.15
2019-05-14T12:59:49.357Z,102622.81
2019-05-14T13:02:19.611Z,102633.69
2019-05-14T13:05:29.422Z,102628.70
2019-05-14T13:11:01.130Z,102631.66
2019-05-14T13:13:30.935Z,102636.39
2019-05-14T13:16:00.434Z,102638.09
2019-05-14T13:19:09.381Z,102654.91
2019-05-14T13:22:08.657Z,102651.75
2019-05-14T13:24:24.046Z,102663.13
2019-05-14T13:26:53.422Z,102664.19
2019-05-14T13:32:19.564Z,102649.95
2019-05-14T13:34:52.176Z,102656.50
2019-05-14T13:38:00.922Z,102654.91
2019-05-14T13:43:31.724Z,102645.73
2019-05-14T13:46:01.212Z,102638.66
2019-05-14T13:49:10.175Z,102640.17
2019-05-14T13:54:40.764Z,102651.89
2019-05-14T13:57:12.184Z,102653.78
2019-05-14T13:59:44.572Z,102657.41
2019-05-14T14:02:52.899Z,102656.66
2019-05-14T14:05:22.544Z,102661.64
2019-05-14T14:11:12.669Z,102655.45
2019-05-14T14:13:40.526Z,102666.38
2019-05-14T14:16:49.323Z,102650.86
2019-05-14T14:19:19.679Z,102645.94
2019-05-14T14:21:49.629Z,102646.11
2019-05-14T14:24:38.757Z,102655.71
2019-05-14T14:27:09.552Z,102652.55
2019-05-14T14:29:39.694Z,102643.34
2019-05-14T14:32:13.584Z,102639.95
2019-05-14T14:37:59.205Z,102635.38
2019-05-14T14:40:30.143Z,102632.75
2019-05-14T14:46:48.359Z,102623.20
2019-05-14T14:52:19.880Z,102629.87
2019-05-14T14:58:00.585Z,102631.34
2019-05-14T15:01:09.419Z,102631.65
2019-05-14T15:06:39.473Z,102632.11
2019-05-14T15:12:10.205Z,102629.91
2019-05-14T15:17:49.576Z,102631.69
2019-05-14T15:20:19.680Z,102642.63
2019-05-14T15:22:51.135Z,102634.02
2019-05-14T15:28:18.875Z,102641.28
2019-05-14T15:30:49.869Z,102629.33
2019-05-14T15:33:19.949Z,102627.39
2019-05-14T15:35:49.498Z,102625.03
2019-05-14T15:38:59.086Z,102627.68
2019-05-14T15:41:29.988Z,102628.23
2019-05-14T15:44:48.660Z,102628.37
2019-05-14T15:47:12.316Z,102623.42
2019-05-14T15:49:41.930Z,102620.25
2019-05-14T15:52:13.629Z,102618.33
2019-05-14T15:54:47.133Z,102620.56
2019-05-14T15:57:14.631Z,102624.69
2019-05-14T15:59:44.160Z,102627.19
2019-05-14T16:02:13.962Z,102635.06
2019-05-14T16:05:04.491Z,102630.61
2019-05-14T16:07:33.942Z,102642.39
2019-05-14T16:10:04.802Z,102651.99
2019-05-14T16:13:14.531Z,102655.19
2019-05-14T16:18:24.262Z,102638.44
2019-05-14T16:24:02.961Z,102613.45
2019-05-14T16:29:47.239Z,102612.73
2019-05-14T16:32:17.248Z,102618.84
2019-05-14T16:38:14.629Z,102616.55
2019-05-14T16:40:44.099Z,102623.25
2019-05-14T16:49:11.995Z,102627.33
2019-05-14T16:51:41.460Z,102628.20
2019-05-14T16:54:12.372Z,102627.47
2019-05-14T16:56:41.954Z,102630.37
2019-05-14T16:59:50.827Z,102626.20
2019-05-14T17:02:20.764Z,102626.67
2019-05-14T17:04:50.193Z,102625.34
2019-05-14T17:07:58.969Z,102627.47
2019-05-14T17:10:48.269Z,102616.41
2019-05-14T17:13:19.193Z,102623.36
2019-05-14T17:19:02.688Z,102615.84
2019-05-14T17:21:32.273Z,102620.47
2019-05-14T17:24:01.876Z,102615.80
2019-05-14T17:26:31.391Z,102614.11
2019-05-14T17:29:20.154Z,102607.30
2019-05-14T17:34:25.777Z,102608.82
2019-05-14T17:36:55.457Z,102616.50
2019-05-14T17:39:44.343Z,102614.56
2019-05-14T17:42:14.453Z,102619.96
2019-05-14T17:45:23.890Z,102618.44
2019-05-14T17:47:58.326Z,102611.94
2019-05-14T17:53:41.734Z,102624.08
2019-05-14T17:56:50.709Z,102622.49
2019-05-14T17:59:20.313Z,102622.59
2019-05-14T18:01:49.682Z,102618.48
2019-05-14T18:04:20.040Z,102622.09
2019-05-14T18:06:49.587Z,102624.84
2019-05-14T18:12:34.066Z,102622.08
2019-05-14T18:18:33.348Z,102623.23
2019-05-14T18:21:02.910Z,102622.66
2019-05-14T18:24:11.670Z,102627.27
2019-05-14T18:32:30.946Z,102633.80
2019-05-14T18:35:20.270Z,102633.91
2019-05-14T18:37:49.786Z,102634.77
2019-05-14T18:40:19.818Z,102632.68
2019-05-14T18:42:49.255Z,102638.55
2019-05-14T18:45:19.362Z,102638.23
2019-05-14T18:47:48.889Z,102636.64
2019-05-14T18:50:19.582Z,102646.05
2019-05-14T18:53:29.800Z,102640.99
2019-05-14T18:59:00.718Z,102644.86
2019-05-14T19:01:53.736Z,102653.27
2019-05-14T19:04:22.179Z,102653.31
2019-05-14T19:06:51.787Z,102656.91
2019-05-14T19:18:20.154Z,102660.42
2019-05-14T19:24:38.230Z,102656.69
2019-05-14T19:30:25.377Z,102665.21
2019-05-14T19:32:54.768Z,102661.55
2019-05-14T19:35:43.600Z,102666.75
2019-05-14T19:41:29.190Z,102670.29
2019-05-14T19:44:40.377Z,102678.98
2019-05-14T19:47:10.612Z,102683.13
2019-05-14T19:49:59.184Z,102678.09
2019-05-14T19:53:09.061Z,102680.56
2019-05-14T20:02:06.282Z,102687.64
2019-05-14T20:04:36.037Z,102690.39
2019-05-14T20:10:01.457Z,102696.55
2019-05-14T20:15:45.710Z,102692.77
2019-05-14T20:18:54.640Z,102700.47
2019-05-14T20:22:03.982Z,102695.06
2019-05-14T20:30:50.491Z,102693.98
2019-05-14T20:33:20.421Z,102691.74
2019-05-14T20:35:50.621Z,102692.09
2019-05-14T20:41:18.043Z,102688.06
2019-05-14T20:43:48.116Z,102689.66
2019-05-14T20:46:19.328Z,102693.95
2019-05-14T20:49:28.421Z,102699.11
2019-05-14T20:51:59.570Z,102687.20
2019-05-14T20:54:30.903Z,102684.11
2019-05-14T20:57:00.394Z,102683.97
2019-05-14T20:59:29.936Z,102688.38
2019-05-14T21:02:39.567Z,102678.70
2019-05-14T21:08:13.611Z,102675.66
2019-05-14T21:10:54.826Z,102678.41
2019-05-14T21:16:18.527Z,102685.50
2019-05-14T21:18:48.859Z,102679.06
2019-05-14T21:24:29.604Z,102681.80
2019-05-14T21:30:03.927Z,102682.73
2019-05-14T21:33:13.049Z,102681.94
2019-05-14T21:36:21.876Z,102683.33
2019-05-14T21:38:51.797Z,102682.95
2019-05-14T21:41:21.703Z,102685.20
2019-05-14T21:44:30.507Z,102684.81
2019-05-14T21:47:00.145Z,102672.07
2019-05-14T21:49:30.005Z,102682.56
2019-05-14T21:52:42.195Z,102683.02
2019-05-14T21:58:25.158Z,102686.89
2019-05-14T22:01:33.830Z,102697.03
2019-05-14T22:04:03.359Z,102699.67
2019-05-14T22:10:07.171Z,102695.27
2019-05-14T22:12:39.269Z,102699.11
2019-05-14T22:15:09.272Z,102698.73
2019-05-14T22:17:39.591Z,102691.67
2019-05-14T22:28:52.953Z,102688.45
2019-05-14T22:35:31.647Z,102691.08
2019-05-14T22:41:18.179Z,102693.42
2019-05-14T22:43:51.093Z,102690.80
2019-05-14T22:46:19.337Z,102699.14
2019-05-14T22:48:51.488Z,102709.73
2019-05-14T22:51:20.962Z,102711.17
2019-05-14T22:54:30.712Z,102709.47
2019-05-14T22:59:41.444Z,102700.85
2019-05-14T23:02:11.539Z,102706.17
2019-05-14T23:04:42.704Z,102707.97
2019-05-14T23:07:12.282Z,102712.78
2019-05-14T23:09:41.837Z,102714.55
2019-05-14T23:12:12.280Z,102706.59
2019-05-14T23:17:38.969Z,102703.06
2019-05-14T23:20:09.373Z,102706.02
2019-05-14T23:23:18.542Z,102705.14
2019-05-14T23:25:49.836Z,102710.80
2019-05-14T23:28:19.380Z,102707.75
2019-05-14T23:31:30.811Z,102711.69
2019-05-14T23:34:01.344Z,102720.89
2019-05-14T23:45:40.517Z,102723.37
2019-05-14T23:48:10.479Z,102721.66
2019-05-14T23:50:39.861Z,102723.05
2019-05-14T23:53:29.159Z,102724.91
2019-05-14T23:56:19.383Z,102724.70
2019-05-14T23:58:55.883Z,102724.44
